createdAt,value
2019-02-16T00:00:01.469Z,19.58
2019-02-16T00:01:02.081Z,19.66
2019-02-16T00:02:02.661Z,19.54
2019-02-16T00:03:03.242Z,19.54
2019-02-16T00:04:03.824Z,19.64
2019-02-16T00:05:04.405Z,19.55
2019-02-16T00:06:05.000Z,19.58
2019-02-16T00:07:05.565Z,19.49
2019-02-16T00:08:06.196Z,19.49
2019-02-16T00:09:06.826Z,19.51
2019-02-16T00:10:07.510Z,19.48
2019-02-16T00:11:08.134Z,19.49
2019-02-16T00:12:08.672Z,19.41
2019-02-16T00:13:09.254Z,19.41
2019-02-16T00:14:09.837Z,19.47
2019-02-16T00:15:10.425Z,19.44
2019-02-16T00:16:11.097Z,19.45
2019-02-16T00:17:11.675Z,19.37
2019-02-16T00:18:12.257Z,19.40
2019-02-16T00:19:12.836Z,19.31
2019-02-16T00:20:13.417Z,19.37
2019-02-16T00:21:14.000Z,19.27
2019-02-16T00:22:14.578Z,19.24
2019-02-16T00:23:15.210Z,19.33
2019-02-16T00:24:15.792Z,19.22
2019-02-16T00:25:16.372Z,19.30
2019-02-16T00:26:17.002Z,19.29
2019-02-16T00:27:17.630Z,19.16
2019-02-16T00:28:18.267Z,19.26
2019-02-16T00:29:18.892Z,19.16
2019-02-16T00:30:19.573Z,19.15
2019-02-16T00:31:20.153Z,19.15
2019-02-16T00:32:20.787Z,19.19
2019-02-16T00:33:21.368Z,19.11
2019-02-16T00:34:21.948Z,19.12
2019-02-16T00:35:22.531Z,19.11
2019-02-16T00:36:23.210Z,19.11
2019-02-16T00:37:23.792Z,19.02
2019-02-16T00:38:24.372Z,19.07
2019-02-16T00:39:24.955Z,19.08
2019-02-16T00:40:25.542Z,19.08
2019-02-16T00:41:26.120Z,19.00
2019-02-16T00:42:26.752Z,18.98
2019-02-16T00:43:27.331Z,18.90
2019-02-16T00:44:30.070Z,18.99
2019-02-16T00:45:29.635Z,18.88
2019-02-16T00:46:30.220Z,18.88
2019-02-16T00:47:30.795Z,18.81
2019-02-16T00:48:31.425Z,18.78
2019-02-16T00:49:32.006Z,18.81
2019-02-16T00:50:32.587Z,18.78
2019-02-16T00:51:33.168Z,18.83
2019-02-16T00:52:33.747Z,18.78
2019-02-16T00:53:34.377Z,18.78
2019-02-16T00:54:35.003Z,18.74
2019-02-16T00:55:35.584Z,18.78
2019-02-16T00:56:36.172Z,18.70
2019-02-16T00:57:36.751Z,18.77
2019-02-16T00:58:37.335Z,18.74
2019-02-16T00:59:37.913Z,18.74
2019-02-16T01:00:38.496Z,18.63
2019-02-16T01:01:39.076Z,18.60
2019-02-16T01:02:39.657Z,18.73
2019-02-16T01:03:40.238Z,18.63
2019-02-16T01:04:40.819Z,18.65
2019-02-16T01:05:41.400Z,18.58
2019-02-16T01:06:41.983Z,18.66
2019-02-16T01:07:42.562Z,18.62
2019-02-16T01:08:43.192Z,18.53
2019-02-16T01:09:43.821Z,18.59
2019-02-16T01:10:44.403Z,18.59
2019-02-16T01:11:44.981Z,18.50
2019-02-16T01:12:45.562Z,18.52
2019-02-16T01:13:46.145Z,18.49
2019-02-16T01:14:46.725Z,18.47
2019-02-16T01:15:47.354Z,18.58
2019-02-16T01:16:48.145Z,18.50
2019-02-16T01:17:48.692Z,18.52
2019-02-16T01:18:49.273Z,18.45
2019-02-16T01:19:49.854Z,18.41
2019-02-16T01:20:50.434Z,18.45
2019-02-16T01:21:51.015Z,18.41
2019-02-16T01:22:51.596Z,18.47
2019-02-16T01:23:52.228Z,18.40
2019-02-16T01:24:52.806Z,18.43
2019-02-16T01:25:53.385Z,18.38
2019-02-16T01:26:53.966Z,18.45
2019-02-16T01:27:54.546Z,18.40
2019-02-16T01:28:55.127Z,18.38
2019-02-16T01:29:55.707Z,18.41
2019-02-16T01:30:56.291Z,18.41
2019-02-16T01:31:56.924Z,18.41
2019-02-16T01:32:57.497Z,18.44
2019-02-16T01:33:58.132Z,18.44
2019-02-16T01:34:58.708Z,18.40
2019-02-16T01:35:59.289Z,18.37
2019-02-16T01:36:59.868Z,18.34
2019-02-16T01:38:00.447Z,18.31
2019-02-16T01:39:01.028Z,18.34
2019-02-16T01:40:01.610Z,18.35
2019-02-16T01:41:02.192Z,18.31
2019-02-16T01:42:02.771Z,18.31
2019-02-16T01:43:03.408Z,18.31
2019-02-16T01:44:03.981Z,18.28
2019-02-16T01:45:04.562Z,18.26
2019-02-16T01:46:05.191Z,18.25
2019-02-16T01:47:05.770Z,18.28
2019-02-16T01:48:06.352Z,18.29
2019-02-16T01:49:06.930Z,18.28
2019-02-16T01:50:07.515Z,18.25
2019-02-16T01:51:08.091Z,18.19
2019-02-16T01:52:08.669Z,18.28
2019-02-16T01:53:09.249Z,18.20
2019-02-16T01:54:09.877Z,18.22
2019-02-16T01:55:10.457Z,18.16
2019-02-16T01:56:11.035Z,18.23
2019-02-16T01:57:11.615Z,18.23
2019-02-16T01:58:12.194Z,18.25
2019-02-16T01:59:12.776Z,18.18
2019-02-16T02:00:13.353Z,18.18
2019-02-16T02:01:13.934Z,18.19
2019-02-16T02:02:14.513Z,18.16
2019-02-16T02:03:15.142Z,18.28
2019-02-16T02:04:15.720Z,18.20
2019-02-16T02:05:16.304Z,18.15
2019-02-16T02:06:16.933Z,18.13
2019-02-16T02:07:17.513Z,18.05
2019-02-16T02:08:18.093Z,18.18
2019-02-16T02:09:18.679Z,18.10
2019-02-16T02:10:19.304Z,18.15
2019-02-16T02:11:19.882Z,18.00
2019-02-16T02:12:20.461Z,17.98
2019-02-16T02:13:21.043Z,18.05
2019-02-16T02:14:21.623Z,18.00
2019-02-16T02:15:22.204Z,18.01
2019-02-16T02:16:22.784Z,17.97
2019-02-16T02:17:23.365Z,17.95
2019-02-16T02:18:23.944Z,18.01
2019-02-16T02:19:24.525Z,18.00
2019-02-16T02:20:25.107Z,18.01
2019-02-16T02:21:25.689Z,17.89
2019-02-16T02:22:26.317Z,17.97
2019-02-16T02:23:26.895Z,17.95
2019-02-16T02:24:27.475Z,18.00
2019-02-16T02:25:28.057Z,18.01
2019-02-16T02:26:28.637Z,17.90
2019-02-16T02:27:29.214Z,17.87
2019-02-16T02:28:29.794Z,17.95
2019-02-16T02:29:30.375Z,17.97
2019-02-16T02:30:30.956Z,18.01
2019-02-16T02:31:31.582Z,17.89
2019-02-16T02:32:32.163Z,17.94
2019-02-16T02:33:32.745Z,18.00
2019-02-16T02:34:33.424Z,17.98
2019-02-16T02:35:33.998Z,18.01
2019-02-16T02:36:34.630Z,17.98
2019-02-16T02:37:35.211Z,17.97
2019-02-16T02:38:35.837Z,17.89
2019-02-16T02:39:36.418Z,17.98
2019-02-16T02:40:37.055Z,18.03
2019-02-16T02:41:37.678Z,17.89
2019-02-16T02:42:38.326Z,17.90
2019-02-16T02:43:38.967Z,18.03
2019-02-16T02:44:39.499Z,18.00
2019-02-16T02:45:40.079Z,18.03
2019-02-16T02:46:40.658Z,17.95
2019-02-16T02:47:41.242Z,17.85
2019-02-16T02:48:41.822Z,18.00
2019-02-16T02:49:42.401Z,17.86
2019-02-16T02:50:42.980Z,17.95
2019-02-16T02:51:51.658Z,17.97
2019-02-16T02:52:45.143Z,17.85
2019-02-16T02:53:45.713Z,17.83
2019-02-16T02:54:46.289Z,17.87
2019-02-16T02:55:46.873Z,17.90
2019-02-16T02:56:47.449Z,17.85
2019-02-16T02:57:48.112Z,17.86
2019-02-16T02:58:48.662Z,17.85
2019-02-16T02:59:49.235Z,17.83
2019-02-16T03:00:49.815Z,17.72
2019-02-16T03:01:50.394Z,17.79
2019-02-16T03:02:51.002Z,17.76
2019-02-16T03:03:51.553Z,17.70
2019-02-16T03:04:52.133Z,17.72
2019-02-16T03:05:52.763Z,17.72
2019-02-16T03:06:53.340Z,17.74
2019-02-16T03:07:53.921Z,17.70
2019-02-16T03:08:54.552Z,17.79
2019-02-16T03:09:55.180Z,17.72
2019-02-16T03:10:55.761Z,17.74
2019-02-16T03:11:56.342Z,17.76
2019-02-16T03:12:56.923Z,17.71
2019-02-16T03:13:57.503Z,17.70
2019-02-16T03:14:58.084Z,17.68
2019-02-16T03:15:58.664Z,17.72
2019-02-16T03:16:59.249Z,17.68
2019-02-16T03:17:59.875Z,17.67
2019-02-16T03:19:00.504Z,17.70
2019-02-16T03:20:01.084Z,17.71
2019-02-16T03:21:01.667Z,17.71
2019-02-16T03:22:03.196Z,17.65
2019-02-16T03:23:03.818Z,17.60
2019-02-16T03:24:04.455Z,17.67
2019-02-16T03:25:05.126Z,17.72
2019-02-16T03:26:05.704Z,17.60
2019-02-16T03:27:06.282Z,17.68
2019-02-16T03:28:06.862Z,17.67
2019-02-16T03:29:07.446Z,17.70
2019-02-16T03:30:08.024Z,17.65
2019-02-16T03:31:08.599Z,17.64
2019-02-16T03:32:09.197Z,17.60
2019-02-16T03:33:09.787Z,17.60
2019-02-16T03:34:10.341Z,17.54
2019-02-16T03:35:10.914Z,17.51
2019-02-16T03:36:11.546Z,17.51
2019-02-16T03:37:12.122Z,17.52
2019-02-16T03:38:12.703Z,17.45
2019-02-16T03:39:13.280Z,17.44
2019-02-16T03:40:13.966Z,17.45
2019-02-16T03:41:14.540Z,17.42
2019-02-16T03:42:15.117Z,17.46
2019-02-16T03:43:15.694Z,17.46
2019-02-16T03:44:16.274Z,17.44
2019-02-16T03:45:16.853Z,17.44
2019-02-16T03:46:17.431Z,17.33
2019-02-16T03:47:18.060Z,17.42
2019-02-16T03:48:18.686Z,17.39
2019-02-16T03:49:19.263Z,17.39
2019-02-16T03:50:19.844Z,17.42
2019-02-16T03:51:20.427Z,17.36
2019-02-16T03:52:21.064Z,17.38
2019-02-16T03:53:21.632Z,17.30
2019-02-16T03:54:22.205Z,17.39
2019-02-16T03:55:22.830Z,17.38
2019-02-16T03:56:23.407Z,17.42
2019-02-16T03:57:23.982Z,17.42
2019-02-16T03:58:24.557Z,17.38
2019-02-16T03:59:25.130Z,17.44
2019-02-16T04:00:25.759Z,17.31
2019-02-16T04:01:26.340Z,17.41
2019-02-16T04:02:26.959Z,17.41
2019-02-16T04:03:27.537Z,17.38
2019-02-16T04:04:28.116Z,17.46
2019-02-16T04:05:28.688Z,17.33
2019-02-16T04:06:29.273Z,17.39
2019-02-16T04:07:29.894Z,17.33
2019-02-16T04:08:30.469Z,17.36
2019-02-16T04:09:31.042Z,17.24
2019-02-16T04:10:31.658Z,17.31
2019-02-16T04:11:32.231Z,17.30
2019-02-16T04:12:32.803Z,17.31
2019-02-16T04:13:33.377Z,17.26
2019-02-16T04:14:33.998Z,17.31
2019-02-16T04:15:34.623Z,17.33
2019-02-16T04:16:35.197Z,17.24
2019-02-16T04:17:35.769Z,17.26
2019-02-16T04:18:36.344Z,17.30
2019-02-16T04:19:36.924Z,17.27
2019-02-16T04:20:37.534Z,17.27
2019-02-16T04:21:38.112Z,17.30
2019-02-16T04:22:38.724Z,17.29
2019-02-16T04:23:39.292Z,17.24
2019-02-16T04:24:39.865Z,17.29
2019-02-16T04:25:40.441Z,17.30
2019-02-16T04:26:41.013Z,17.27
2019-02-16T04:27:41.589Z,17.31
2019-02-16T04:28:42.160Z,17.24
2019-02-16T04:29:42.736Z,17.31
2019-02-16T04:30:43.308Z,17.29
2019-02-16T04:31:43.884Z,17.27
2019-02-16T04:32:44.457Z,17.30
2019-02-16T04:33:45.032Z,17.34
2019-02-16T04:34:45.605Z,17.24
2019-02-16T04:35:46.178Z,17.27
2019-02-16T04:36:46.751Z,17.36
2019-02-16T04:37:47.326Z,17.31
2019-02-16T04:38:48.093Z,17.36
2019-02-16T04:39:48.643Z,17.29
2019-02-16T04:40:49.216Z,17.26
2019-02-16T04:41:49.787Z,17.30
2019-02-16T04:42:50.362Z,17.33
2019-02-16T04:43:50.936Z,17.31
2019-02-16T04:44:51.510Z,17.29
2019-02-16T04:45:52.135Z,17.27
2019-02-16T04:46:52.713Z,17.31
2019-02-16T04:47:53.283Z,17.29
2019-02-16T04:48:53.860Z,17.33
2019-02-16T04:49:54.432Z,17.27
2019-02-16T04:50:55.056Z,17.38
2019-02-16T04:51:55.684Z,17.36
2019-02-16T04:52:56.257Z,17.27
2019-02-16T04:53:56.840Z,17.33
2019-02-16T04:54:57.409Z,17.29
2019-02-16T04:55:58.028Z,17.23
2019-02-16T04:56:58.600Z,17.20
2019-02-16T04:57:59.173Z,17.23
2019-02-16T04:58:59.749Z,17.24
2019-02-16T05:00:00.456Z,17.19
2019-02-16T05:01:01.038Z,17.23
2019-02-16T05:02:01.563Z,17.23
2019-02-16T05:03:02.139Z,17.16
2019-02-16T05:04:02.711Z,17.15
2019-02-16T05:05:03.290Z,17.06
2019-02-16T05:06:03.862Z,17.22
2019-02-16T05:07:04.488Z,17.23
2019-02-16T05:08:05.062Z,17.27
2019-02-16T05:09:05.632Z,17.15
2019-02-16T05:10:06.258Z,17.08
2019-02-16T05:11:06.780Z,17.09
2019-02-16T05:12:07.404Z,17.20
2019-02-16T05:13:07.978Z,17.23
2019-02-16T05:14:08.553Z,17.24
2019-02-16T05:15:09.179Z,17.19
2019-02-16T05:16:09.749Z,17.09
2019-02-16T05:17:10.322Z,17.08
2019-02-16T05:18:10.895Z,17.05
2019-02-16T05:19:11.467Z,17.08
2019-02-16T05:20:12.041Z,17.22
2019-02-16T05:21:12.614Z,17.14
2019-02-16T05:22:13.186Z,17.12
2019-02-16T05:23:13.762Z,17.15
2019-02-16T05:24:14.333Z,17.12
2019-02-16T05:25:14.909Z,17.12
2019-02-16T05:26:15.478Z,17.02
2019-02-16T05:27:16.100Z,17.14
2019-02-16T05:28:16.672Z,17.09
2019-02-16T05:29:17.245Z,17.15
2019-02-16T05:30:17.823Z,17.23
2019-02-16T05:31:18.434Z,17.14
2019-02-16T05:32:19.006Z,17.16
2019-02-16T05:33:19.579Z,17.16
2019-02-16T05:34:20.199Z,17.22
2019-02-16T05:35:20.773Z,17.09
2019-02-16T05:36:21.346Z,17.09
2019-02-16T05:37:21.924Z,17.11
2019-02-16T05:38:22.537Z,17.11
2019-02-16T05:39:23.122Z,17.05
2019-02-16T05:40:23.693Z,17.14
2019-02-16T05:41:24.269Z,17.16
2019-02-16T05:42:24.839Z,16.99
2019-02-16T05:43:25.415Z,17.11
2019-02-16T05:44:26.082Z,17.14
2019-02-16T05:45:26.655Z,17.04
2019-02-16T05:46:27.227Z,17.09
2019-02-16T05:47:27.802Z,17.08
2019-02-16T05:48:28.376Z,17.08
2019-02-16T05:49:28.950Z,17.11
2019-02-16T05:50:29.524Z,17.11
2019-02-16T05:51:30.148Z,17.04
2019-02-16T05:52:30.722Z,17.16
2019-02-16T05:53:31.296Z,17.11
2019-02-16T05:54:31.871Z,17.12
2019-02-16T05:55:32.445Z,17.05
2019-02-16T05:56:33.017Z,17.15
2019-02-16T05:57:33.591Z,17.12
2019-02-16T05:58:34.164Z,17.11
2019-02-16T05:59:34.742Z,17.11
2019-02-16T06:00:35.311Z,17.16
2019-02-16T06:01:35.935Z,17.15
2019-02-16T06:02:36.459Z,17.04
2019-02-16T06:03:37.033Z,17.11
2019-02-16T06:04:37.608Z,17.02
2019-02-16T06:05:38.180Z,17.09
2019-02-16T06:06:38.802Z,17.02
2019-02-16T06:07:39.467Z,16.97
2019-02-16T06:08:40.040Z,16.94
2019-02-16T06:09:40.612Z,16.90
2019-02-16T06:10:41.185Z,16.93
2019-02-16T06:11:41.756Z,16.87
2019-02-16T06:12:42.329Z,16.99
2019-02-16T06:13:42.903Z,16.96
2019-02-16T06:14:43.474Z,16.90
2019-02-16T06:15:44.051Z,16.91
2019-02-16T06:16:44.622Z,16.96
2019-02-16T06:17:45.194Z,16.93
2019-02-16T06:18:45.768Z,16.96
2019-02-16T06:19:46.344Z,16.93
2019-02-16T06:20:46.965Z,16.97
2019-02-16T06:21:47.540Z,16.91
2019-02-16T06:22:48.177Z,16.90
2019-02-16T06:23:48.733Z,16.91
2019-02-16T06:24:49.306Z,16.96
2019-02-16T06:25:49.929Z,16.90
2019-02-16T06:26:50.503Z,16.93
2019-02-16T06:27:51.076Z,16.89
2019-02-16T06:28:51.651Z,16.99
2019-02-16T06:29:52.223Z,16.93
2019-02-16T06:30:52.947Z,16.97
2019-02-16T06:31:53.572Z,16.94
2019-02-16T06:32:54.144Z,16.99
2019-02-16T06:33:54.768Z,16.87
2019-02-16T06:34:55.346Z,16.99
2019-02-16T06:35:55.916Z,16.93
2019-02-16T06:36:56.489Z,16.96
2019-02-16T06:37:57.063Z,16.79
2019-02-16T06:38:57.638Z,16.94
2019-02-16T06:39:58.210Z,16.87
2019-02-16T06:40:58.783Z,16.86
2019-02-16T06:41:59.368Z,16.86
2019-02-16T06:42:59.931Z,16.81
2019-02-16T06:44:00.551Z,16.83
2019-02-16T06:45:01.124Z,16.83
2019-02-16T06:46:01.697Z,16.79
2019-02-16T06:47:02.271Z,16.81
2019-02-16T06:48:02.850Z,16.69
2019-02-16T06:49:03.422Z,16.79
2019-02-16T06:50:03.993Z,16.74
2019-02-16T06:51:04.565Z,16.74
2019-02-16T06:52:05.189Z,16.68
2019-02-16T06:53:12.841Z,16.78
2019-02-16T06:54:07.328Z,16.76
2019-02-16T06:55:07.901Z,16.75
2019-02-16T06:56:08.488Z,16.69
2019-02-16T06:57:09.097Z,16.72
2019-02-16T06:58:09.670Z,16.75
2019-02-16T06:59:10.243Z,16.68
2019-02-16T07:00:10.816Z,16.65
2019-02-16T07:01:11.391Z,16.64
2019-02-16T07:02:11.963Z,16.68
2019-02-16T07:03:12.537Z,16.57
2019-02-16T07:04:13.110Z,16.60
2019-02-16T07:05:13.693Z,16.65
2019-02-16T07:06:14.256Z,16.65
2019-02-16T07:07:14.828Z,16.64
2019-02-16T07:08:15.451Z,16.60
2019-02-16T07:09:16.023Z,16.60
2019-02-16T07:10:16.594Z,16.61
2019-02-16T07:11:17.218Z,16.60
2019-02-16T07:12:17.832Z,16.61
2019-02-16T07:13:18.405Z,16.66
2019-02-16T07:14:18.978Z,16.56
2019-02-16T07:15:19.551Z,16.66
2019-02-16T07:16:20.124Z,16.61
2019-02-16T07:17:20.699Z,16.64
2019-02-16T07:18:21.272Z,16.58
2019-02-16T07:19:21.847Z,16.61
2019-02-16T07:20:22.419Z,16.61
2019-02-16T07:21:22.991Z,16.64
2019-02-16T07:22:23.565Z,16.64
2019-02-16T07:23:24.137Z,16.65
2019-02-16T07:24:24.711Z,16.61
2019-02-16T07:25:25.288Z,16.58
2019-02-16T07:26:25.854Z,16.58
2019-02-16T07:27:26.476Z,16.64
2019-02-16T07:28:27.051Z,16.65
2019-02-16T07:29:27.624Z,16.66
2019-02-16T07:30:28.197Z,16.60
2019-02-16T07:31:28.821Z,16.56
2019-02-16T07:32:29.443Z,16.50
2019-02-16T07:33:30.016Z,16.50
2019-02-16T07:34:30.590Z,16.57
2019-02-16T07:35:31.208Z,16.47
2019-02-16T07:36:31.779Z,16.56
2019-02-16T07:37:32.357Z,16.60
2019-02-16T07:38:32.971Z,16.53
2019-02-16T07:39:33.544Z,16.46
2019-02-16T07:40:34.118Z,16.51
2019-02-16T07:41:34.690Z,16.49
2019-02-16T07:42:35.261Z,16.49
2019-02-16T07:43:35.843Z,16.47
2019-02-16T07:44:36.402Z,16.46
2019-02-16T07:45:36.978Z,16.42
2019-02-16T07:46:37.547Z,16.38
2019-02-16T07:47:38.126Z,16.43
2019-02-16T07:48:38.737Z,16.51
2019-02-16T07:49:39.310Z,16.42
2019-02-16T07:50:39.880Z,16.38
2019-02-16T07:51:40.495Z,16.39
2019-02-16T07:52:41.071Z,16.35
2019-02-16T07:53:41.639Z,16.39
2019-02-16T07:54:42.212Z,16.43
2019-02-16T07:55:42.785Z,16.41
2019-02-16T07:56:43.407Z,16.36
2019-02-16T07:57:43.977Z,16.32
2019-02-16T07:58:44.550Z,16.36
2019-02-16T07:59:45.121Z,16.33
2019-02-16T08:00:45.692Z,16.33
2019-02-16T08:01:46.264Z,16.33
2019-02-16T08:02:46.836Z,16.31
2019-02-16T08:03:47.409Z,16.33
2019-02-16T08:04:47.982Z,16.33
2019-02-16T08:05:48.558Z,16.35
2019-02-16T08:06:49.179Z,16.35
2019-02-16T08:07:49.748Z,16.36
2019-02-16T08:08:50.323Z,16.39
2019-02-16T08:09:50.933Z,16.36
2019-02-16T08:10:51.505Z,16.38
2019-02-16T08:11:52.078Z,16.36
2019-02-16T08:12:52.650Z,16.31
2019-02-16T08:13:53.220Z,16.43
2019-02-16T08:14:53.792Z,16.33
2019-02-16T08:15:54.364Z,16.35
2019-02-16T08:16:54.988Z,16.33
2019-02-16T08:17:55.561Z,16.41
2019-02-16T08:18:56.135Z,16.46
2019-02-16T08:19:56.708Z,16.41
2019-02-16T08:20:57.328Z,16.41
2019-02-16T08:21:57.901Z,16.42
2019-02-16T08:22:58.473Z,16.46
2019-02-16T08:23:59.086Z,16.49
2019-02-16T08:24:59.662Z,16.41
2019-02-16T08:26:00.236Z,16.49
2019-02-16T08:27:00.860Z,16.60
2019-02-16T08:28:01.433Z,16.42
2019-02-16T08:29:02.006Z,16.50
2019-02-16T08:30:02.579Z,16.53
2019-02-16T08:31:03.149Z,16.58
2019-02-16T08:32:03.721Z,16.54
2019-02-16T08:33:04.296Z,16.50
2019-02-16T08:34:04.866Z,16.56
2019-02-16T08:35:05.488Z,16.58
2019-02-16T08:36:06.061Z,16.68
2019-02-16T08:37:06.684Z,16.58
2019-02-16T08:38:07.362Z,16.65
2019-02-16T08:39:07.940Z,16.58
2019-02-16T08:40:08.519Z,16.60
2019-02-16T08:41:09.091Z,16.58
2019-02-16T08:42:09.668Z,16.57
2019-02-16T08:43:10.245Z,16.57
2019-02-16T08:44:10.823Z,16.64
2019-02-16T08:45:11.399Z,16.58
2019-02-16T08:46:11.975Z,16.61
2019-02-16T08:47:12.550Z,16.60
2019-02-16T08:48:13.178Z,16.69
2019-02-16T08:49:13.755Z,16.64
2019-02-16T08:50:14.331Z,16.64
2019-02-16T08:51:14.917Z,16.65
2019-02-16T08:52:15.490Z,16.64
2019-02-16T08:53:16.066Z,16.64
2019-02-16T08:54:16.644Z,16.64
2019-02-16T08:55:17.223Z,16.61
2019-02-16T08:56:17.851Z,16.60
2019-02-16T08:57:18.427Z,16.65
2019-02-16T08:58:19.006Z,16.64
2019-02-16T08:59:19.588Z,16.61
2019-02-16T09:00:20.164Z,16.64
2019-02-16T09:01:20.741Z,16.74
2019-02-16T09:02:21.320Z,16.64
2019-02-16T09:03:21.897Z,16.66
2019-02-16T09:04:22.525Z,16.61
2019-02-16T09:05:23.153Z,16.74
2019-02-16T09:06:23.728Z,16.72
2019-02-16T09:07:24.306Z,16.72
2019-02-16T09:08:24.888Z,16.75
2019-02-16T09:09:25.462Z,16.69
2019-02-16T09:10:26.192Z,16.69
2019-02-16T09:11:26.817Z,16.83
2019-02-16T09:12:27.394Z,16.79
2019-02-16T09:13:27.972Z,16.76
2019-02-16T09:14:28.550Z,16.76
2019-02-16T09:15:29.127Z,16.83
2019-02-16T09:16:29.706Z,16.83
2019-02-16T09:17:30.282Z,16.87
2019-02-16T09:18:30.858Z,16.83
2019-02-16T09:19:31.437Z,16.84
2019-02-16T09:20:32.012Z,16.87
2019-02-16T09:21:32.591Z,16.93
2019-02-16T09:22:33.169Z,16.79
2019-02-16T09:23:33.749Z,16.90
2019-02-16T09:24:34.326Z,16.99
2019-02-16T09:25:34.902Z,16.87
2019-02-16T09:26:35.480Z,16.86
2019-02-16T09:27:36.110Z,16.97
2019-02-16T09:28:36.686Z,16.99
2019-02-16T09:29:37.263Z,16.99
2019-02-16T09:30:37.891Z,16.89
2019-02-16T09:31:38.467Z,16.89
2019-02-16T09:32:39.044Z,16.97
2019-02-16T09:33:39.626Z,17.01
2019-02-16T09:34:40.196Z,17.02
2019-02-16T09:35:40.775Z,17.02
2019-02-16T09:36:41.352Z,16.99
2019-02-16T09:37:41.929Z,16.91
2019-02-16T09:38:42.555Z,17.05
2019-02-16T09:39:43.132Z,17.06
2019-02-16T09:40:43.710Z,17.04
2019-02-16T09:41:44.288Z,17.01
2019-02-16T09:42:44.864Z,17.04
2019-02-16T09:43:45.450Z,17.04
2019-02-16T09:44:46.021Z,17.09
2019-02-16T09:45:46.598Z,17.04
2019-02-16T09:46:47.172Z,17.12
2019-02-16T09:47:47.752Z,17.06
2019-02-16T09:48:48.329Z,17.09
2019-02-16T09:49:48.954Z,17.19
2019-02-16T09:50:49.532Z,17.19
2019-02-16T09:51:50.110Z,17.14
2019-02-16T09:52:50.886Z,17.22
2019-02-16T09:53:51.464Z,17.34
2019-02-16T09:54:52.090Z,17.26
2019-02-16T09:55:52.670Z,17.31
2019-02-16T09:56:53.247Z,17.27
2019-02-16T09:57:53.826Z,17.33
2019-02-16T09:58:54.404Z,17.44
2019-02-16T09:59:55.033Z,17.42
2019-02-16T10:00:55.610Z,17.45
2019-02-16T10:01:56.233Z,17.54
2019-02-16T10:02:56.812Z,17.49
2019-02-16T10:03:57.393Z,17.57
2019-02-16T10:04:57.974Z,17.54
2019-02-16T10:05:58.598Z,17.60
2019-02-16T10:06:59.174Z,17.57
2019-02-16T10:07:59.754Z,17.68
2019-02-16T10:09:00.331Z,17.63
2019-02-16T10:10:00.912Z,17.60
2019-02-16T10:11:01.687Z,17.71
2019-02-16T10:12:02.266Z,17.65
2019-02-16T10:13:02.842Z,17.64
2019-02-16T10:14:03.421Z,17.68
2019-02-16T10:15:04.091Z,17.72
2019-02-16T10:16:04.666Z,17.72
2019-02-16T10:17:05.242Z,17.72
2019-02-16T10:18:05.821Z,17.71
2019-02-16T10:19:06.448Z,17.71
2019-02-16T10:20:07.034Z,17.74
2019-02-16T10:21:07.603Z,17.70
2019-02-16T10:22:08.181Z,17.86
2019-02-16T10:23:08.758Z,17.87
2019-02-16T10:24:17.570Z,17.87
2019-02-16T10:25:10.195Z,17.89
2019-02-16T10:26:10.827Z,17.95
2019-02-16T10:27:11.401Z,18.00
2019-02-16T10:28:11.979Z,17.97
2019-02-16T10:29:12.556Z,18.07
2019-02-16T10:30:13.195Z,18.11
2019-02-16T10:31:13.779Z,18.13
2019-02-16T10:32:14.358Z,18.11
2019-02-16T10:33:14.939Z,18.05
2019-02-16T10:34:15.519Z,18.07
2019-02-16T10:35:16.147Z,18.20
2019-02-16T10:36:16.725Z,18.22
2019-02-16T10:37:17.304Z,18.18
2019-02-16T10:38:17.887Z,18.16
2019-02-16T10:39:18.463Z,18.20
2019-02-16T10:40:19.042Z,18.25
2019-02-16T10:41:19.617Z,18.20
2019-02-16T10:42:20.398Z,18.29
2019-02-16T10:43:20.982Z,18.35
2019-02-16T10:44:21.602Z,18.37
2019-02-16T10:45:22.182Z,18.37
2019-02-16T10:46:22.762Z,18.38
2019-02-16T10:47:23.339Z,18.49
2019-02-16T10:48:23.970Z,18.55
2019-02-16T10:49:24.547Z,18.56
2019-02-16T10:50:25.176Z,18.53
2019-02-16T10:51:25.762Z,18.59
2019-02-16T10:52:26.377Z,18.58
2019-02-16T10:53:26.955Z,18.68
2019-02-16T10:54:29.676Z,18.60
2019-02-16T10:55:29.108Z,18.73
2019-02-16T10:56:29.690Z,18.74
2019-02-16T10:57:30.268Z,18.73
2019-02-16T10:58:30.855Z,18.70
2019-02-16T10:59:31.430Z,18.80
2019-02-16T11:00:32.061Z,18.88
2019-02-16T11:01:32.641Z,18.92
2019-02-16T11:02:33.222Z,18.84
2019-02-16T11:03:33.801Z,18.95
2019-02-16T11:04:38.352Z,18.86
2019-02-16T11:05:35.959Z,18.98
2019-02-16T11:06:36.586Z,18.98
2019-02-16T11:07:37.217Z,18.99
2019-02-16T11:08:37.798Z,19.00
2019-02-16T11:09:38.379Z,18.98
2019-02-16T11:10:38.961Z,18.98
2019-02-16T11:11:39.563Z,19.08
2019-02-16T11:12:40.124Z,19.04
2019-02-16T11:13:40.705Z,19.09
2019-02-16T11:14:41.283Z,19.12
2019-02-16T11:15:41.906Z,19.12
2019-02-16T11:16:42.486Z,19.12
2019-02-16T11:17:43.069Z,19.15
2019-02-16T11:18:43.650Z,19.15
2019-02-16T11:19:44.282Z,19.12
2019-02-16T11:20:44.863Z,19.11
2019-02-16T11:21:45.444Z,19.18
2019-02-16T11:22:46.057Z,19.12
2019-02-16T11:23:46.659Z,19.15
2019-02-16T11:24:47.241Z,19.09
2019-02-16T11:25:47.822Z,19.07
2019-02-16T11:26:48.407Z,19.00
2019-02-16T11:27:49.034Z,18.88
2019-02-16T11:28:49.614Z,18.96
2019-02-16T11:29:50.195Z,18.89
2019-02-16T11:30:50.776Z,18.88
2019-02-16T11:31:51.365Z,18.89
2019-02-16T11:32:51.985Z,18.80
2019-02-16T11:33:52.567Z,18.81
2019-02-16T11:34:53.142Z,18.78
2019-02-16T11:35:53.722Z,18.73
2019-02-16T11:36:54.303Z,18.78
2019-02-16T11:37:54.884Z,18.83
2019-02-16T11:38:55.466Z,18.77
2019-02-16T11:39:56.044Z,18.80
2019-02-16T11:40:56.675Z,18.80
2019-02-16T11:41:57.308Z,18.80
2019-02-16T11:42:57.894Z,18.77
2019-02-16T11:43:58.470Z,18.80
2019-02-16T11:44:59.050Z,18.78
2019-02-16T11:45:59.829Z,18.89
2019-02-16T11:47:00.413Z,18.81
2019-02-16T11:48:00.991Z,18.83
2019-02-16T11:49:01.569Z,18.78
2019-02-16T11:50:02.146Z,18.88
2019-02-16T11:51:02.738Z,18.89
2019-02-16T11:52:03.353Z,18.84
2019-02-16T11:53:03.933Z,18.86
2019-02-16T11:54:04.521Z,18.86
2019-02-16T11:55:05.099Z,18.84
2019-02-16T11:56:05.677Z,18.81
2019-02-16T11:57:06.258Z,18.86
2019-02-16T11:58:06.835Z,18.86
2019-02-16T11:59:07.465Z,18.83
2019-02-16T12:00:08.044Z,18.83
2019-02-16T12:01:08.624Z,18.92
2019-02-16T12:02:09.206Z,18.89
2019-02-16T12:03:09.867Z,18.88
2019-02-16T12:04:10.415Z,18.77
2019-02-16T12:05:10.997Z,18.84
2019-02-16T12:06:11.576Z,18.84
2019-02-16T12:07:12.158Z,18.89
2019-02-16T12:08:12.780Z,18.89
2019-02-16T12:09:13.451Z,18.95
2019-02-16T12:10:14.031Z,18.88
2019-02-16T12:11:14.609Z,18.86
2019-02-16T12:12:15.186Z,18.96
2019-02-16T12:13:15.770Z,18.88
2019-02-16T12:14:17.847Z,18.86
2019-02-16T12:15:17.925Z,18.86
2019-02-16T12:16:18.562Z,18.86
2019-02-16T12:17:19.125Z,18.88
2019-02-16T12:18:19.754Z,18.98
2019-02-16T12:19:20.385Z,18.99
2019-02-16T12:20:20.971Z,18.86
2019-02-16T12:21:21.546Z,18.93
2019-02-16T12:22:22.126Z,18.96
2019-02-16T12:23:22.705Z,18.99
2019-02-16T12:24:23.291Z,18.99
2019-02-16T12:25:23.866Z,19.07
2019-02-16T12:26:24.446Z,18.99
2019-02-16T12:27:25.027Z,18.98
2019-02-16T12:28:25.608Z,19.00
2019-02-16T12:29:26.189Z,18.99
2019-02-16T12:30:31.868Z,19.09
2019-02-16T12:31:32.499Z,19.07
2019-02-16T12:32:33.129Z,19.09
2019-02-16T12:33:38.766Z,19.11
2019-02-16T12:34:39.387Z,19.09
2019-02-16T12:35:39.964Z,19.18
2019-02-16T12:36:40.545Z,19.11
2019-02-16T12:37:41.215Z,19.14
2019-02-16T12:38:41.795Z,19.18
2019-02-16T12:39:42.424Z,19.11
2019-02-16T12:40:42.949Z,19.15
2019-02-16T12:41:43.528Z,19.11
2019-02-16T12:42:44.110Z,19.15
2019-02-16T12:43:44.692Z,19.04
2019-02-16T12:44:45.268Z,19.14
2019-02-16T12:45:51.283Z,19.12
2019-02-16T12:46:47.472Z,19.21
2019-02-16T12:47:48.096Z,19.26
2019-02-16T12:48:48.676Z,19.22
2019-02-16T12:49:49.256Z,19.15
2019-02-16T12:50:49.837Z,19.22
2019-02-16T12:51:50.473Z,19.18
2019-02-16T12:52:51.051Z,19.29
2019-02-16T12:53:51.637Z,19.24
2019-02-16T12:54:52.214Z,19.33
2019-02-16T12:55:52.794Z,19.24
2019-02-16T12:56:53.376Z,19.29
2019-02-16T12:57:53.958Z,19.29
2019-02-16T12:58:54.539Z,19.24
2019-02-16T12:59:55.122Z,19.29